createdAt,value
2023-01-05T00:02:04.133Z,100.00
2023-01-05T00:04:31.806Z,100.00
2023-01-05T00:06:59.351Z,100.00
2023-01-05T00:09:27.676Z,100.00
2023-01-05T00:12:15.523Z,100.00
2023-01-05T00:15:05.966Z,100.00
2023-01-05T00:17:53.262Z,100.00
2023-01-05T00:20:41.634Z,100.00
2023-01-05T00:23:15.623Z,100.00
2023-01-05T00:25:45.478Z,100.00
2023-01-05T00:28:17.505Z,100.00
2023-01-05T00:30:50.422Z,100.00
2023-01-05T00:33:32.356Z,100.00
2023-01-05T00:36:11.009Z,100.00
2023-01-05T00:38:40.968Z,100.00
2023-01-05T00:41:16.740Z,100.00
2023-01-05T00:43:54.570Z,100.00
2023-01-05T00:46:32.808Z,100.00
2023-01-05T00:49:12.139Z,100.00
2023-01-05T00:51:43.324Z,100.00
2023-01-05T00:54:12.095Z,100.00
2023-01-05T00:57:04.295Z,100.00
2023-01-05T00:59:37.045Z,100.00
2023-01-05T01:02:05.435Z,100.00
2023-01-05T01:04:43.476Z,100.00
2023-01-05T01:07:12.411Z,100.00
2023-01-05T01:09:44.855Z,100.00
2023-01-05T01:12:13.842Z,100.00
2023-01-05T01:14:43.088Z,100.00
2023-01-05T01:17:12.623Z,100.00
2023-01-05T01:19:42.321Z,100.00
2023-01-05T01:22:11.479Z,100.00
2023-01-05T01:24:51.806Z,100.00
2023-01-05T01:27:20.261Z,100.00
2023-01-05T01:29:49.869Z,100.00
2023-01-05T01:32:19.737Z,100.00
2023-01-05T01:34:53.263Z,100.00
2023-01-05T01:37:22.922Z,100.00
2023-01-05T01:39:50.610Z,100.00
2023-01-05T01:42:19.170Z,100.00
2023-01-05T01:45:15.624Z,100.00
2023-01-05T01:47:46.674Z,100.00
2023-01-05T01:50:22.744Z,100.00
2023-01-05T01:52:56.247Z,100.00
2023-01-05T01:55:24.046Z,100.00
2023-01-05T01:57:52.686Z,100.00
2023-01-05T02:00:21.633Z,100.00
2023-01-05T02:02:53.171Z,100.00
2023-01-05T02:05:25.881Z,100.00
2023-01-05T02:07:53.729Z,100.00
2023-01-05T02:10:34.049Z,100.00
2023-01-05T02:13:14.395Z,100.00
2023-01-05T02:15:52.058Z,100.00
2023-01-05T02:18:33.003Z,100.00
2023-01-05T02:21:18.459Z,100.00
2023-01-05T02:24:11.671Z,100.00
2023-01-05T02:27:24.654Z,100.00
2023-01-05T02:30:33.450Z,100.00
2023-01-05T02:33:17.569Z,100.00
2023-01-05T02:36:01.201Z,100.00
2023-01-05T02:38:38.584Z,100.00
2023-01-05T02:41:14.064Z,100.00
2023-01-05T02:43:45.662Z,100.00
2023-01-05T02:46:19.228Z,100.00
2023-01-05T02:48:56.090Z,100.00
2023-01-05T02:51:30.657Z,100.00
2023-01-05T02:54:10.835Z,100.00
2023-01-05T02:56:52.689Z,100.00
2023-01-05T02:59:30.926Z,100.00
2023-01-05T03:02:10.551Z,100.00
2023-01-05T03:04:47.035Z,100.00
2023-01-05T03:07:18.952Z,100.00
2023-01-05T03:09:49.188Z,100.00
2023-01-05T03:12:40.371Z,100.00
2023-01-05T03:15:18.702Z,100.00
2023-01-05T03:17:51.809Z,100.00
2023-01-05T03:20:25.274Z,100.00
2023-01-05T03:23:14.216Z,100.00
2023-01-05T03:26:00.623Z,100.00
2023-01-05T03:28:51.814Z,100.00
2023-01-05T03:31:43.333Z,97.44
2023-01-05T03:34:36.798Z,94.96
2023-01-05T03:39:58.169Z,93.50
2023-01-05T03:42:36.494Z,92.55
2023-01-05T03:45:07.494Z,91.44
2023-01-05T03:47:37.288Z,89.54
2023-01-05T03:50:06.608Z,88.15
2023-01-05T03:52:46.174Z,88.57
2023-01-05T03:55:16.290Z,87.51
2023-01-05T03:57:44.879Z,86.42
2023-01-05T04:00:14.911Z,86.37
2023-01-05T04:02:43.973Z,86.96
2023-01-05T04:05:15.011Z,86.44
2023-01-05T04:07:48.967Z,85.67
2023-01-05T04:10:18.012Z,86.22
2023-01-05T04:12:50.935Z,85.48
2023-01-05T04:15:19.666Z,84.51
2023-01-05T04:17:49.695Z,83.61
2023-01-05T04:20:17.295Z,83.60
2023-01-05T04:22:46.574Z,83.45
2023-01-05T04:25:14.422Z,83.70
2023-01-05T04:27:42.110Z,84.18
2023-01-05T04:30:11.541Z,83.70
2023-01-05T04:32:41.004Z,84.08
2023-01-05T04:35:11.562Z,84.62
2023-01-05T04:37:40.051Z,85.05
2023-01-05T04:40:12.182Z,85.73
2023-01-05T04:42:39.906Z,86.41
2023-01-05T04:45:10.490Z,86.52
2023-01-05T04:47:38.602Z,86.47
2023-01-05T04:50:10.368Z,86.43
2023-01-05T04:52:38.251Z,86.29
2023-01-05T04:55:07.045Z,86.61
2023-01-05T04:57:38.844Z,86.66
2023-01-05T05:00:07.610Z,86.62
2023-01-05T05:02:36.082Z,86.65
2023-01-05T05:05:04.154Z,86.43
2023-01-05T05:07:31.940Z,86.15
2023-01-05T05:10:00.557Z,85.43
2023-01-05T05:12:28.639Z,84.90
2023-01-05T05:15:00.770Z,84.80
2023-01-05T05:17:31.230Z,84.37
2023-01-05T05:20:00.985Z,84.08
2023-01-05T05:22:29.878Z,83.84
2023-01-05T05:24:57.622Z,83.61
2023-01-05T05:27:28.317Z,83.04
2023-01-05T05:30:09.419Z,83.29
2023-01-05T05:32:44.436Z,83.90
2023-01-05T05:35:12.547Z,83.24
2023-01-05T05:37:40.041Z,82.94
2023-01-05T05:40:08.652Z,82.72
2023-01-05T05:42:39.809Z,82.55
2023-01-05T05:45:10.006Z,82.82
2023-01-05T05:47:39.132Z,82.30
2023-01-05T05:50:15.673Z,82.43
2023-01-05T05:52:43.518Z,82.12
2023-01-05T05:55:11.328Z,82.17
2023-01-05T05:57:39.057Z,82.20
2023-01-05T06:00:09.397Z,81.56
2023-01-05T06:02:37.164Z,81.94
2023-01-05T06:05:05.410Z,81.96
2023-01-05T06:07:33.001Z,81.94
2023-01-05T06:10:00.828Z,81.52
2023-01-05T06:12:28.832Z,81.49
2023-01-05T06:14:58.522Z,81.48
2023-01-05T06:17:27.460Z,81.73
2023-01-05T06:19:55.103Z,81.83
2023-01-05T06:22:22.738Z,81.79
2023-01-05T06:24:50.803Z,82.30
2023-01-05T06:27:18.378Z,81.80
2023-01-05T06:29:46.031Z,81.78
2023-01-05T06:32:13.569Z,81.84
2023-01-05T06:34:42.890Z,81.95
2023-01-05T06:37:10.651Z,82.09
2023-01-05T06:39:38.445Z,82.48
2023-01-05T06:42:06.085Z,82.79
2023-01-05T06:44:33.640Z,82.80
2023-01-05T06:47:01.219Z,82.73
2023-01-05T06:49:28.797Z,82.62
2023-01-05T06:51:57.694Z,82.43
2023-01-05T06:54:25.267Z,82.55
2023-01-05T06:56:52.799Z,82.44
2023-01-05T06:59:20.505Z,82.21
2023-01-05T07:01:48.180Z,81.85
2023-01-05T07:04:15.824Z,81.58
2023-01-05T07:06:43.491Z,81.40
2023-01-05T07:09:12.302Z,81.02
2023-01-05T07:11:39.990Z,80.49
2023-01-05T07:14:07.631Z,80.47
2023-01-05T07:16:35.286Z,80.31
2023-01-05T07:19:02.916Z,80.92
2023-01-05T07:21:30.510Z,80.15
2023-01-05T07:23:58.025Z,79.75
2023-01-05T07:26:26.947Z,79.75
2023-01-05T07:28:54.486Z,80.06
2023-01-05T07:31:22.040Z,80.01
2023-01-05T07:33:49.609Z,80.45
2023-01-05T07:36:17.137Z,80.31
2023-01-05T07:38:44.691Z,80.14
2023-01-05T07:41:12.290Z,80.01
2023-01-05T07:43:41.134Z,80.54
2023-01-05T07:46:10.005Z,81.12
2023-01-05T07:48:37.769Z,81.12
2023-01-05T07:51:06.337Z,80.44
2023-01-05T07:53:43.872Z,80.45
2023-01-05T07:56:13.303Z,80.66
2023-01-05T07:58:42.523Z,80.64
2023-01-05T08:01:11.887Z,80.13
2023-01-05T08:03:39.853Z,80.17
2023-01-05T08:06:09.666Z,79.85
2023-01-05T08:08:37.422Z,79.62
2023-01-05T08:11:05.575Z,80.18
2023-01-05T08:14:05.639Z,79.93
2023-01-05T08:16:34.892Z,80.07
2023-01-05T08:19:05.241Z,79.67
2023-01-05T08:21:35.417Z,79.91
2023-01-05T08:24:05.412Z,80.24
2023-01-05T08:26:34.548Z,80.05
2023-01-05T08:29:03.399Z,80.11
2023-01-05T08:31:37.016Z,79.98
2023-01-05T08:34:13.456Z,80.73
2023-01-05T08:36:41.305Z,80.07
2023-01-05T08:39:11.409Z,81.11
2023-01-05T08:41:41.477Z,81.25
2023-01-05T08:44:12.630Z,81.22
2023-01-05T08:46:40.281Z,81.00
2023-01-05T08:49:10.363Z,81.65
2023-01-05T08:51:38.817Z,81.75
2023-01-05T08:54:06.584Z,81.90
2023-01-05T08:56:38.780Z,81.69
2023-01-05T08:59:07.618Z,82.05
2023-01-05T09:01:36.771Z,82.03
2023-01-05T09:04:04.650Z,82.46
2023-01-05T09:06:33.637Z,82.36
2023-01-05T09:09:01.176Z,82.42
2023-01-05T09:11:28.778Z,82.74
2023-01-05T09:13:58.010Z,82.17
2023-01-05T09:17:05.732Z,82.08
2023-01-05T09:19:15.395Z,81.10
2023-01-05T09:21:44.502Z,80.55
2023-01-05T09:24:13.400Z,80.24
2023-01-05T09:26:41.035Z,80.67
2023-01-05T09:29:08.682Z,80.37
2023-01-05T09:31:37.948Z,79.82
2023-01-05T09:34:05.523Z,79.62
2023-01-05T09:36:34.247Z,79.60
2023-01-05T09:39:04.527Z,79.89
2023-01-05T09:41:36.183Z,79.89
2023-01-05T09:44:06.731Z,79.38
2023-01-05T09:46:37.758Z,78.53
2023-01-05T09:49:08.347Z,78.08
2023-01-05T09:51:36.282Z,77.13
2023-01-05T09:54:05.825Z,77.18
2023-01-05T09:59:28.733Z,77.15
2023-01-05T10:02:00.113Z,76.34
2023-01-05T10:04:31.339Z,75.45
2023-01-05T10:07:03.611Z,75.18
2023-01-05T10:09:39.121Z,75.40
2023-01-05T10:12:38.303Z,75.94
2023-01-05T10:15:09.435Z,76.50
2023-01-05T10:17:41.787Z,76.38
2023-01-05T10:20:17.047Z,76.97
2023-01-05T10:22:54.285Z,76.38
2023-01-05T10:25:30.283Z,77.13
2023-01-05T10:28:12.487Z,76.60
2023-01-05T10:30:58.417Z,76.26
2023-01-05T10:33:45.746Z,76.93
2023-01-05T10:37:06.825Z,77.42
2023-01-05T10:39:30.169Z,77.72
2023-01-05T10:42:11.569Z,78.08
2023-01-05T10:44:56.521Z,77.40
2023-01-05T10:47:29.285Z,76.98
2023-01-05T10:49:57.367Z,76.89
2023-01-05T10:52:25.252Z,76.79
2023-01-05T10:54:57.346Z,76.66
2023-01-05T10:57:39.258Z,76.42
2023-01-05T11:00:11.804Z,75.75
2023-01-05T11:02:41.359Z,75.60
2023-01-05T11:05:27.692Z,75.55
2023-01-05T11:07:58.439Z,75.68
2023-01-05T11:10:30.829Z,75.29
2023-01-05T11:13:06.089Z,75.61
2023-01-05T11:15:40.948Z,76.07
2023-01-05T11:18:08.755Z,76.94
2023-01-05T11:20:36.320Z,76.93
2023-01-05T11:23:03.865Z,76.41
2023-01-05T11:25:33.078Z,76.87
2023-01-05T11:28:10.802Z,76.85
2023-01-05T11:30:41.094Z,76.56
2023-01-05T11:33:19.927Z,76.08
2023-01-05T11:35:54.667Z,76.59
2023-01-05T11:38:26.197Z,76.28
2023-01-05T11:40:56.052Z,75.55
2023-01-05T11:43:30.435Z,75.18
2023-01-05T11:46:01.161Z,75.57
2023-01-05T11:48:32.796Z,75.98
2023-01-05T11:51:00.901Z,75.41
2023-01-05T11:53:38.309Z,75.58
2023-01-05T11:56:07.246Z,75.49
2023-01-05T11:58:43.867Z,75.27
2023-01-05T12:01:38.485Z,75.19
2023-01-05T12:04:25.608Z,74.80
2023-01-05T12:07:08.716Z,74.62
2023-01-05T12:09:40.864Z,75.74
2023-01-05T12:12:22.507Z,75.22
2023-01-05T12:15:30.543Z,74.99
2023-01-05T12:18:08.323Z,75.60
2023-01-05T12:20:49.230Z,74.68
2023-01-05T12:23:33.189Z,74.56
2023-01-05T12:26:13.735Z,74.58
2023-01-05T12:30:02.098Z,74.36
2023-01-05T12:35:13.538Z,73.68
2023-01-05T12:37:57.179Z,72.37
2023-01-05T12:40:39.617Z,71.59
2023-01-05T12:43:10.600Z,71.74
2023-01-05T12:46:02.199Z,70.97
2023-01-05T12:48:37.949Z,71.04
2023-01-05T12:51:15.673Z,71.15
2023-01-05T12:53:51.066Z,71.70
2023-01-05T12:56:25.633Z,71.33
2023-01-05T12:59:08.238Z,71.29
2023-01-05T13:01:41.144Z,71.20
2023-01-05T13:04:37.836Z,71.02
2023-01-05T13:07:12.230Z,71.05
2023-01-05T13:09:40.553Z,70.33
2023-01-05T13:12:12.201Z,70.46
2023-01-05T13:14:52.482Z,70.33
2023-01-05T13:17:26.091Z,70.46
2023-01-05T13:20:04.272Z,70.48
2023-01-05T13:22:39.207Z,70.82
2023-01-05T13:25:18.040Z,70.45
2023-01-05T13:27:45.556Z,70.92
2023-01-05T13:30:22.469Z,70.57
2023-01-05T13:33:05.627Z,70.77
2023-01-05T13:35:48.749Z,70.90
2023-01-05T13:38:48.511Z,70.37
2023-01-05T13:41:35.180Z,71.00
2023-01-05T13:44:40.547Z,70.79
2023-01-05T13:47:35.347Z,71.40
2023-01-05T13:50:44.468Z,71.30
2023-01-05T13:53:19.243Z,71.22
2023-01-05T13:55:52.456Z,71.05
2023-01-05T14:01:14.441Z,71.52
2023-01-05T14:06:23.163Z,71.85
2023-01-05T14:08:57.772Z,71.35
2023-01-05T14:11:26.921Z,71.83
2023-01-05T14:13:59.538Z,72.38
2023-01-05T14:16:49.993Z,72.36
2023-01-05T14:19:25.433Z,71.83
2023-01-05T14:22:05.344Z,72.02
2023-01-05T14:24:37.255Z,71.83
2023-01-05T14:27:09.880Z,71.54
2023-01-05T14:30:20.127Z,71.34
2023-01-05T14:32:49.920Z,71.98
2023-01-05T14:35:23.038Z,71.58
2023-01-05T14:37:55.925Z,70.44
2023-01-05T14:40:32.192Z,69.55
2023-01-05T14:43:01.885Z,71.80
2023-01-05T14:45:32.253Z,74.29
2023-01-05T14:48:02.912Z,75.29
2023-01-05T14:50:34.998Z,75.88
2023-01-05T14:53:06.910Z,76.87
2023-01-05T14:55:39.208Z,77.72
2023-01-05T14:58:13.531Z,78.02
2023-01-05T15:00:49.268Z,78.55
2023-01-05T15:03:21.320Z,79.32
2023-01-05T15:05:56.276Z,79.66
2023-01-05T15:08:36.217Z,80.07
2023-01-05T15:11:24.571Z,79.98
2023-01-05T15:14:35.728Z,80.32
2023-01-05T15:17:25.338Z,79.55
2023-01-05T15:20:19.007Z,79.11
2023-01-05T15:23:01.922Z,79.16
2023-01-05T15:25:57.854Z,79.11
2023-01-05T15:28:48.075Z,79.18
2023-01-05T15:31:34.422Z,79.71
2023-01-05T15:34:12.994Z,79.52
2023-01-05T15:36:47.610Z,79.68
2023-01-05T15:39:30.776Z,80.54
2023-01-05T15:42:01.659Z,80.80
2023-01-05T15:44:38.929Z,81.14
2023-01-05T15:47:10.516Z,81.00
2023-01-05T15:49:40.090Z,80.71
2023-01-05T15:52:22.368Z,80.72
2023-01-05T15:55:01.735Z,79.63
2023-01-05T15:57:30.165Z,79.65
2023-01-05T15:59:59.315Z,79.83
2023-01-05T16:02:29.030Z,80.33
2023-01-05T16:05:11.268Z,80.07
2023-01-05T16:07:43.407Z,80.52
2023-01-05T16:10:23.694Z,80.45
2023-01-05T16:12:57.540Z,80.42
2023-01-05T16:15:28.240Z,80.55
2023-01-05T16:17:59.157Z,80.80
2023-01-05T16:20:27.688Z,80.64
2023-01-05T16:23:08.314Z,80.80
2023-01-05T16:25:43.257Z,80.91
2023-01-05T16:28:19.177Z,82.07
2023-01-05T16:30:54.985Z,82.40
2023-01-05T16:33:35.069Z,82.57
2023-01-05T16:36:18.688Z,82.74
2023-01-05T16:38:47.159Z,82.78
2023-01-05T16:41:20.912Z,82.86
2023-01-05T16:43:55.652Z,83.21
2023-01-05T16:46:37.009Z,83.31
2023-01-05T16:49:26.404Z,83.23
2023-01-05T16:51:55.847Z,83.41
2023-01-05T16:54:36.160Z,82.68
2023-01-05T16:57:05.921Z,83.03
2023-01-05T16:59:43.135Z,83.20
2023-01-05T17:02:44.335Z,83.60
2023-01-05T17:05:15.026Z,83.81
2023-01-05T17:07:44.822Z,83.58
2023-01-05T17:10:19.794Z,84.24
2023-01-05T17:12:53.169Z,84.32
2023-01-05T17:15:27.300Z,84.92
2023-01-05T17:17:56.700Z,85.03
2023-01-05T17:20:26.940Z,85.12
2023-01-05T17:22:56.460Z,85.20
2023-01-05T17:25:34.541Z,84.95
2023-01-05T17:28:02.628Z,85.12
2023-01-05T17:30:30.406Z,85.04
2023-01-05T17:32:59.378Z,84.97
2023-01-05T17:35:27.170Z,85.01
2023-01-05T17:37:54.730Z,85.35
2023-01-05T17:40:23.262Z,85.41
2023-01-05T17:42:51.273Z,84.93
2023-01-05T17:45:23.057Z,84.64
2023-01-05T17:47:51.118Z,84.44
2023-01-05T17:50:23.430Z,84.12
2023-01-05T17:52:51.036Z,83.53
2023-01-05T17:55:18.964Z,84.62
2023-01-05T17:57:46.951Z,84.57
2023-01-05T18:00:18.294Z,85.05
2023-01-05T18:02:49.561Z,84.40
2023-01-05T18:05:17.818Z,84.33
2023-01-05T18:07:47.320Z,84.54
2023-01-05T18:10:16.721Z,84.50
2023-01-05T18:12:46.692Z,84.62
2023-01-05T18:15:15.054Z,84.73
2023-01-05T18:17:43.295Z,85.06
2023-01-05T18:20:14.078Z,85.46
2023-01-05T18:22:42.556Z,86.03
2023-01-05T18:25:12.980Z,86.39
2023-01-05T18:27:41.466Z,86.77
2023-01-05T18:30:11.451Z,86.63
2023-01-05T18:32:40.037Z,87.17
2023-01-05T18:35:10.271Z,86.82
2023-01-05T18:37:38.687Z,87.13
2023-01-05T18:40:07.933Z,86.98
2023-01-05T18:42:37.950Z,87.65
2023-01-05T18:45:18.882Z,87.37
2023-01-05T18:47:53.860Z,87.39
2023-01-05T18:50:24.450Z,87.40
2023-01-05T18:52:54.501Z,88.82
2023-01-05T18:55:23.859Z,88.55
2023-01-05T18:57:52.747Z,88.71
2023-01-05T19:00:20.899Z,88.51
2023-01-05T19:02:48.484Z,89.48
2023-01-05T19:05:16.182Z,89.56
2023-01-05T19:07:43.733Z,89.38
2023-01-05T19:10:11.407Z,89.03
2023-01-05T19:12:38.989Z,88.93
2023-01-05T19:15:09.063Z,88.53
2023-01-05T19:17:36.693Z,88.89
2023-01-05T19:20:04.870Z,88.44
2023-01-05T19:22:34.412Z,88.00
2023-01-05T19:25:02.324Z,87.80
2023-01-05T19:27:30.953Z,87.40
2023-01-05T19:29:59.993Z,86.85
2023-01-05T19:32:28.885Z,86.51
2023-01-05T19:34:56.449Z,86.41
2023-01-05T19:37:24.032Z,86.38
2023-01-05T19:39:51.704Z,86.69
2023-01-05T19:42:19.404Z,86.42
2023-01-05T19:44:47.042Z,86.97
2023-01-05T19:47:14.624Z,87.65
2023-01-05T19:49:43.603Z,88.05
2023-01-05T19:52:11.852Z,88.53
2023-01-05T19:54:39.830Z,90.00
2023-01-05T19:57:07.326Z,91.82
2023-01-05T19:59:34.881Z,92.77
2023-01-05T20:02:03.616Z,93.29
2023-01-05T20:04:31.474Z,94.18
2023-01-05T20:07:03.872Z,95.83
2023-01-05T20:09:33.281Z,96.08
2023-01-05T20:12:13.344Z,97.37
2023-01-05T20:14:41.954Z,98.17
2023-01-05T20:17:11.334Z,98.92
2023-01-05T20:19:40.099Z,99.09
2023-01-05T20:22:14.309Z,98.80
2023-01-05T20:24:45.467Z,98.88
2023-01-05T20:27:16.657Z,98.28
2023-01-05T20:29:45.804Z,98.47
2023-01-05T20:32:15.692Z,97.96
2023-01-05T20:34:45.690Z,98.14
2023-01-05T20:37:14.583Z,99.07
2023-01-05T20:39:43.652Z,98.71
2023-01-05T20:42:13.909Z,98.65
2023-01-05T20:44:44.903Z,98.21
2023-01-05T20:47:13.540Z,99.29
2023-01-05T20:49:41.931Z,99.66
2023-01-05T20:52:11.156Z,99.85
2023-01-05T20:54:53.084Z,99.68
2023-01-05T20:57:20.647Z,98.71
2023-01-05T20:59:48.652Z,98.60
2023-01-05T21:02:23.522Z,98.81
2023-01-05T21:04:52.487Z,99.41
2023-01-05T21:07:21.142Z,100.00
2023-01-05T21:09:50.728Z,99.66
2023-01-05T21:12:19.026Z,99.97
2023-01-05T21:14:46.847Z,99.62
2023-01-05T21:17:14.779Z,99.59
2023-01-05T21:19:42.324Z,99.61
2023-01-05T21:24:53.461Z,100.00
2023-01-05T21:27:21.076Z,100.00
2023-01-05T21:30:04.604Z,100.00
2023-01-05T21:32:32.199Z,100.00
2023-01-05T21:34:59.790Z,100.00
2023-01-05T21:37:27.656Z,99.94
2023-01-05T21:39:57.625Z,99.71
2023-01-05T21:42:45.128Z,99.43
2023-01-05T21:45:13.812Z,99.40
2023-01-05T21:47:41.504Z,100.00
2023-01-05T21:50:10.288Z,99.92
2023-01-05T21:52:55.644Z,99.92
2023-01-05T21:55:42.286Z,100.00
2023-01-05T21:58:10.005Z,99.79
2023-01-05T22:00:37.577Z,99.50
2023-01-05T22:03:05.192Z,99.21
2023-01-05T22:05:32.779Z,98.78
2023-01-05T22:08:00.401Z,98.54
2023-01-05T22:10:29.329Z,99.34
2023-01-05T22:12:57.030Z,99.21
2023-01-05T22:15:24.702Z,99.14
2023-01-05T22:17:52.354Z,99.46
2023-01-05T22:20:19.911Z,99.52
2023-01-05T22:22:47.701Z,99.18
2023-01-05T22:25:15.324Z,99.29
2023-01-05T22:27:44.367Z,99.31
2023-01-05T22:30:12.841Z,99.75
2023-01-05T22:32:40.487Z,99.56
2023-01-05T22:35:08.474Z,99.99
2023-01-05T22:37:36.210Z,100.00
2023-01-05T22:40:03.842Z,100.00
2023-01-05T22:42:31.513Z,100.00
2023-01-05T22:45:00.876Z,100.00
2023-01-05T22:47:28.609Z,100.00
2023-01-05T22:49:56.314Z,100.00
2023-01-05T22:52:23.963Z,100.00
2023-01-05T22:54:51.672Z,100.00
2023-01-05T22:57:19.250Z,100.00
2023-01-05T22:59:46.852Z,100.00
2023-01-05T23:02:15.910Z,100.00
2023-01-05T23:04:45.388Z,100.00
2023-01-05T23:07:13.724Z,100.00
2023-01-05T23:09:41.715Z,100.00
2023-01-05T23:12:10.647Z,100.00
2023-01-05T23:14:39.513Z,100.00
2023-01-05T23:17:07.650Z,100.00
2023-01-05T23:19:36.592Z,100.00
2023-01-05T23:22:04.360Z,100.00
2023-01-05T23:24:31.923Z,100.00
2023-01-05T23:26:59.633Z,100.00
2023-01-05T23:29:27.472Z,100.00
2023-01-05T23:31:55.156Z,100.00
2023-01-05T23:34:22.697Z,100.00
2023-01-05T23:36:51.599Z,100.00
2023-01-05T23:39:19.509Z,100.00
2023-01-05T23:41:47.127Z,100.00
2023-01-05T23:44:14.932Z,100.00
2023-01-05T23:46:42.552Z,100.00
2023-01-05T23:49:10.228Z,100.00
2023-01-05T23:51:38.127Z,100.00
2023-01-05T23:54:07.379Z,100.00
2023-01-05T23:56:35.133Z,100.00
2023-01-05T23:59:06.436Z,100.00
